PWSweather.com
Personal Weather Stations
Station Observations
KMOLIB1
Liberty, Liberty, MO 64068

LibertyLiberty, MO 64068

Lat: 39.24, Lon: -94.45

Elevation: 866

Station Type:

Latest ConditionsUpdated 12:00:00 PM CDT Monday, Sep 23, 2019
Currently Today's Max Today's Min Today's Average
Temperature 73.0°F22.8°C 73.0°F22.8°C 57.0°F13.9°C 60.9°F16.1°C
Dew Point 52.1°F11.2°C 52.1°F11.2°C 32.2°F0.1°C 38.1°F3.4°C
Winds 5.0 mph SSW8.0 kmh SSW 7.0 mph -11.3 kmh - - 0.6 mph 1.0 kmh
Wind Gusts 10.0 mph16.1 kmh 10.0 mph16.1 kmh - -
Humidity 48% 48% 39% 43%
Pressure 210.56 in7130.4 mb 210.59 in7131.4 mb 210.48 in7127.7 mb -
Hour Temp Dew Point Humidity Winds Wind Gusts Pressure Precip Precip Rate Daily Precip Total
12:00 PM 73.0°F22.8°C 52.1°F11.2°C 48% 5.0 mph SSW8.0 kmh SSW 10.0 mph16.1 kmh 210.56 in7130.4 mb 0.01 in0.3 mm 0.00 in0.0 mm 0.01 in0.3 mm
11:55 AM 73.0°F22.8°C 52.1°F11.2°C 48% 5.0 mph SE8.0 kmh SE 10.0 mph16.1 kmh 210.56 in7130.4 mb 0.01 in0.3 mm 0.00 in0.0 mm 0.01 in0.3 mm
11:50 AM 72.0°F22.2°C 51.2°F10.7°C 48% 3.0 mph SSE4.8 kmh SSE 10.0 mph16.1 kmh 210.56 in7130.4 mb 0.01 in0.3 mm 0.00 in0.0 mm 0.01 in0.3 mm
11:45 AM 73.0°F22.8°C 52.1°F11.2°C 48% 6.0 mph SE9.7 kmh SE 10.0 mph16.1 kmh 210.56 in7130.4 mb 0.01 in0.3 mm 0.00 in0.0 mm 0.01 in0.3 mm
11:40 AM 73.0°F22.8°C 52.1°F11.2°C 48% 3.0 mph E4.8 kmh E 10.0 mph16.1 kmh 210.56 in7130.4 mb 0.01 in0.3 mm 0.00 in0.0 mm 0.01 in0.3 mm
11:35 AM 73.0°F22.8°C 52.1°F11.2°C 48% 3.0 mph NE4.8 kmh NE 10.0 mph16.1 kmh 210.56 in7130.4 mb 0.01 in0.3 mm 0.00 in0.0 mm 0.01 in0.3 mm
11:30 AM 72.0°F22.2°C 50.6°F10.3°C 47% 2.0 mph S3.2 kmh S 8.0 mph12.9 kmh 210.56 in7130.4 mb 0.01 in0.3 mm 0.00 in0.0 mm 0.01 in0.3 mm
11:25 AM 71.0°F21.7°C 49.7°F9.8°C 47% 2.0 mph SSE3.2 kmh SSE 8.0 mph12.9 kmh 210.57 in7130.7 mb 0.01 in0.3 mm 0.00 in0.0 mm 0.01 in0.3 mm
11:20 AM 71.0°F21.7°C 49.1°F9.5°C 46% 5.0 mph S8.0 kmh S 8.0 mph12.9 kmh 210.57 in7130.7 mb 0.01 in0.3 mm 0.00 in0.0 mm 0.01 in0.3 mm
11:15 AM 71.0°F21.7°C 48.5°F9.2°C 45% 7.0 mph S11.3 kmh S 7.0 mph11.3 kmh 210.58 in7131.1 mb 0.01 in0.3 mm 0.00 in0.0 mm 0.01 in0.3 mm
11:10 AM 70.0°F21.1°C 47.6°F8.7°C 45% Calm Calm 7.0 mph11.3 kmh 210.58 in7131.1 mb 0.01 in0.3 mm 0.00 in0.0 mm 0.01 in0.3 mm
11:05 AM 69.0°F20.6°C 45.5°F7.5°C 43% 3.0 mph SSW4.8 kmh SSW 6.0 mph9.7 kmh 210.58 in7131.1 mb 0.01 in0.3 mm 0.00 in0.0 mm 0.01 in0.3 mm
11:00 AM 69.0°F20.6°C 44.9°F7.2°C 42% 2.0 mph SSW3.2 kmh SSW 6.0 mph9.7 kmh 210.58 in7131.1 mb 0.01 in0.3 mm 0.00 in0.0 mm 0.01 in0.3 mm
10:55 AM 69.0°F20.6°C 44.9°F7.2°C 42% Calm Calm 6.0 mph9.7 kmh 210.58 in7131.1 mb 0.01 in0.3 mm 0.00 in0.0 mm 0.01 in0.3 mm
10:50 AM 68.0°F20.0°C 44.0°F6.7°C 42% 3.0 mph SSW4.8 kmh SSW 6.0 mph9.7 kmh 210.58 in7131.1 mb 0.01 in0.3 mm 0.00 in0.0 mm 0.01 in0.3 mm
10:45 AM 68.0°F20.0°C 44.0°F6.7°C 42% Calm Calm 6.0 mph9.7 kmh 210.59 in7131.4 mb 0.01 in0.3 mm 0.00 in0.0 mm 0.01 in0.3 mm
10:40 AM 66.0°F18.9°C 42.2°F5.7°C 42% 2.0 mph SE3.2 kmh SE 6.0 mph9.7 kmh 210.59 in7131.4 mb 0.01 in0.3 mm 0.00 in0.0 mm 0.01 in0.3 mm
10:35 AM 66.0°F18.9°C 42.8°F6.0°C 43% Calm Calm 6.0 mph9.7 kmh 210.58 in7131.1 mb 0.01 in0.3 mm 0.00 in0.0 mm 0.01 in0.3 mm
10:30 AM 66.0°F18.9°C 42.2°F5.7°C 42% 1.0 mph S1.6 kmh S 6.0 mph9.7 kmh 210.58 in7131.1 mb 0.01 in0.3 mm 0.00 in0.0 mm 0.01 in0.3 mm
10:25 AM 66.0°F18.9°C 41.6°F5.3°C 41% 1.0 mph SE1.6 kmh SE 6.0 mph9.7 kmh 210.58 in7131.1 mb 0.01 in0.3 mm 0.00 in0.0 mm 0.01 in0.3 mm
10:20 AM 65.0°F18.3°C 39.4°F4.1°C 39% Calm Calm 6.0 mph9.7 kmh 210.58 in7131.1 mb 0.01 in0.3 mm 0.00 in0.0 mm 0.01 in0.3 mm
10:15 AM 65.0°F18.3°C 40.0°F4.4°C 40% Calm Calm 6.0 mph9.7 kmh 210.59 in7131.4 mb 0.01 in0.3 mm 0.00 in0.0 mm 0.01 in0.3 mm
10:10 AM 64.0°F17.8°C 38.5°F3.6°C 39% 4.0 mph S6.4 kmh S 6.0 mph9.7 kmh 210.59 in7131.4 mb 0.01 in0.3 mm 0.00 in0.0 mm 0.01 in0.3 mm
10:05 AM 63.0°F17.2°C 38.2°F3.4°C 40% 2.0 mph SE3.2 kmh SE 6.0 mph9.7 kmh 210.59 in7131.4 mb 0.01 in0.3 mm 0.00 in0.0 mm 0.01 in0.3 mm
10:00 AM 62.0°F16.7°C 36.7°F2.6°C 39% 6.0 mph S9.7 kmh S 6.0 mph9.7 kmh 210.59 in7131.4 mb 0.01 in0.3 mm 0.00 in0.0 mm 0.01 in0.3 mm
09:55 AM 62.0°F16.7°C 37.4°F3.0°C 40% 2.0 mph SSE3.2 kmh SSE 6.0 mph9.7 kmh 210.59 in7131.4 mb 0.01 in0.3 mm 0.00 in0.0 mm 0.01 in0.3 mm
09:50 AM 62.0°F16.7°C 36.7°F2.6°C 39% 3.0 mph SSE4.8 kmh SSE 6.0 mph9.7 kmh 210.59 in7131.4 mb 0.01 in0.3 mm 0.00 in0.0 mm 0.01 in0.3 mm
09:45 AM 62.0°F16.7°C 37.4°F3.0°C 40% 2.0 mph SSE3.2 kmh SSE 6.0 mph9.7 kmh 210.58 in7131.1 mb 0.01 in0.3 mm 0.00 in0.0 mm 0.01 in0.3 mm
09:40 AM 62.0°F16.7°C 36.7°F2.6°C 39% Calm Calm 6.0 mph9.7 kmh 210.58 in7131.1 mb 0.01 in0.3 mm 0.00 in0.0 mm 0.01 in0.3 mm
09:35 AM 62.0°F16.7°C 37.4°F3.0°C 40% Calm Calm 4.0 mph6.4 kmh 210.59 in7131.4 mb 0.01 in0.3 mm 0.00 in0.0 mm 0.01 in0.3 mm
09:30 AM 61.0°F16.1°C 35.8°F2.1°C 39% Calm Calm 4.0 mph6.4 kmh 210.59 in7131.4 mb 0.01 in0.3 mm 0.00 in0.0 mm 0.01 in0.3 mm
09:25 AM 61.0°F16.1°C 36.5°F2.5°C 40% Calm Calm 4.0 mph6.4 kmh 210.59 in7131.4 mb 0.01 in0.3 mm 0.00 in0.0 mm 0.01 in0.3 mm
09:20 AM 60.0°F15.6°C 34.9°F1.6°C 39% Calm Calm 4.0 mph6.4 kmh 210.59 in7131.4 mb 0.01 in0.3 mm 0.00 in0.0 mm 0.01 in0.3 mm
09:15 AM 60.0°F15.6°C 35.6°F2.0°C 40% Calm Calm 4.0 mph6.4 kmh 210.58 in7131.1 mb 0.01 in0.3 mm 0.00 in0.0 mm 0.01 in0.3 mm
09:10 AM 60.0°F15.6°C 34.9°F1.6°C 39% 3.0 mph SW4.8 kmh SW 4.0 mph6.4 kmh 210.58 in7131.1 mb 0.01 in0.3 mm 0.00 in0.0 mm 0.01 in0.3 mm
09:05 AM 60.0°F15.6°C 34.9°F1.6°C 39% Calm Calm 4.0 mph6.4 kmh 210.57 in7130.7 mb 0.01 in0.3 mm 0.00 in0.0 mm 0.01 in0.3 mm
09:00 AM 60.0°F15.6°C 34.9°F1.6°C 39% Calm Calm 4.0 mph6.4 kmh 210.57 in7130.7 mb 0.01 in0.3 mm 0.00 in0.0 mm 0.01 in0.3 mm
08:55 AM 60.0°F15.6°C 35.6°F2.0°C 40% 2.0 mph SE3.2 kmh SE 4.0 mph6.4 kmh 210.57 in7130.7 mb 0.01 in0.3 mm 0.00 in0.0 mm 0.01 in0.3 mm
08:50 AM 59.0°F15.0°C 34.0°F1.1°C 39% Calm Calm 4.0 mph6.4 kmh 210.57 in7130.7 mb 0.01 in0.3 mm 0.00 in0.0 mm 0.01 in0.3 mm
08:45 AM 60.0°F15.6°C 35.6°F2.0°C 40% Calm Calm 4.0 mph6.4 kmh 210.57 in7130.7 mb 0.01 in0.3 mm 0.00 in0.0 mm 0.01 in0.3 mm
08:40 AM 59.0°F15.0°C 34.0°F1.1°C 39% Calm Calm 4.0 mph6.4 kmh 210.57 in7130.7 mb 0.01 in0.3 mm 0.00 in0.0 mm 0.01 in0.3 mm
08:35 AM 59.0°F15.0°C 34.0°F1.1°C 39% Calm Calm 4.0 mph6.4 kmh 210.57 in7130.7 mb 0.01 in0.3 mm 0.00 in0.0 mm 0.01 in0.3 mm
08:30 AM 59.0°F15.0°C 34.0°F1.1°C 39% Calm Calm 4.0 mph6.4 kmh 210.57 in7130.7 mb 0.01 in0.3 mm 0.00 in0.0 mm 0.01 in0.3 mm
08:25 AM 59.0°F15.0°C 34.0°F1.1°C 39% Calm Calm 4.0 mph6.4 kmh 210.57 in7130.7 mb 0.01 in0.3 mm 0.00 in0.0 mm 0.01 in0.3 mm
08:20 AM 59.0°F15.0°C 34.0°F1.1°C 39% Calm Calm 4.0 mph6.4 kmh 210.57 in7130.7 mb 0.01 in0.3 mm 0.00 in0.0 mm 0.01 in0.3 mm
08:15 AM 59.0°F15.0°C 34.0°F1.1°C 39% Calm Calm 4.0 mph6.4 kmh 210.57 in7130.7 mb 0.01 in0.3 mm 0.00 in0.0 mm 0.01 in0.3 mm
08:10 AM 58.0°F14.4°C 33.1°F0.6°C 39% Calm Calm 4.0 mph6.4 kmh 210.57 in7130.7 mb 0.01 in0.3 mm 0.00 in0.0 mm 0.01 in0.3 mm
08:05 AM 58.0°F14.4°C 33.8°F1.0°C 40% Calm Calm 4.0 mph6.4 kmh 210.56 in7130.4 mb 0.01 in0.3 mm 0.00 in0.0 mm 0.01 in0.3 mm
08:00 AM 58.0°F14.4°C 33.1°F0.6°C 39% Calm Calm 4.0 mph6.4 kmh 210.56 in7130.4 mb 0.01 in0.3 mm 0.00 in0.0 mm 0.01 in0.3 mm
07:55 AM 58.0°F14.4°C 33.8°F1.0°C 40% Calm Calm 4.0 mph6.4 kmh 210.55 in7130.0 mb 0.01 in0.3 mm 0.00 in0.0 mm 0.01 in0.3 mm
07:50 AM 58.0°F14.4°C 33.1°F0.6°C 39% Calm Calm 4.0 mph6.4 kmh 210.55 in7130.0 mb 0.01 in0.3 mm 0.00 in0.0 mm 0.01 in0.3 mm
07:45 AM 58.0°F14.4°C 33.8°F1.0°C 40% Calm Calm 4.0 mph6.4 kmh 210.55 in7130.0 mb 0.01 in0.3 mm 0.00 in0.0 mm 0.01 in0.3 mm
07:40 AM 58.0°F14.4°C 33.1°F0.6°C 39% Calm Calm 4.0 mph6.4 kmh 210.55 in7130.0 mb 0.01 in0.3 mm 0.00 in0.0 mm 0.01 in0.3 mm
07:35 AM 58.0°F14.4°C 33.8°F1.0°C 40% Calm Calm 4.0 mph6.4 kmh 210.55 in7130.0 mb 0.01 in0.3 mm 0.00 in0.0 mm 0.01 in0.3 mm
07:30 AM 57.0°F13.9°C 32.2°F0.1°C 39% Calm Calm 4.0 mph6.4 kmh 210.55 in7130.0 mb 0.01 in0.3 mm 0.00 in0.0 mm 0.01 in0.3 mm
07:25 AM 57.0°F13.9°C 32.9°F0.5°C 40% Calm Calm 4.0 mph6.4 kmh 210.55 in7130.0 mb 0.01 in0.3 mm 0.00 in0.0 mm 0.01 in0.3 mm
07:20 AM 57.0°F13.9°C 32.2°F0.1°C 39% Calm Calm 4.0 mph6.4 kmh 210.55 in7130.0 mb 0.01 in0.3 mm 0.00 in0.0 mm 0.01 in0.3 mm
07:15 AM 57.0°F13.9°C 32.9°F0.5°C 40% Calm Calm 4.0 mph6.4 kmh 210.55 in7130.0 mb 0.01 in0.3 mm 0.00 in0.0 mm 0.01 in0.3 mm
07:10 AM 57.0°F13.9°C 32.2°F0.1°C 39% Calm Calm 4.0 mph6.4 kmh 210.55 in7130.0 mb 0.01 in0.3 mm 0.00 in0.0 mm 0.01 in0.3 mm
07:05 AM 57.0°F13.9°C 32.9°F0.5°C 40% Calm Calm 4.0 mph6.4 kmh 210.54 in7129.7 mb 0.01 in0.3 mm 0.00 in0.0 mm 0.01 in0.3 mm
07:00 AM 57.0°F13.9°C 32.9°F0.5°C 40% Calm Calm 4.0 mph6.4 kmh 210.54 in7129.7 mb 0.01 in0.3 mm 0.00 in0.0 mm 0.01 in0.3 mm
06:55 AM 57.0°F13.9°C 32.9°F0.5°C 40% Calm Calm 4.0 mph6.4 kmh 210.54 in7129.7 mb 0.01 in0.3 mm 0.00 in0.0 mm 0.01 in0.3 mm
06:50 AM 57.0°F13.9°C 32.9°F0.5°C 40% Calm Calm 4.0 mph6.4 kmh 210.54 in7129.7 mb 0.01 in0.3 mm 0.00 in0.0 mm 0.01 in0.3 mm
06:45 AM 57.0°F13.9°C 32.9°F0.5°C 40% Calm Calm 4.0 mph6.4 kmh 210.53 in7129.4 mb 0.01 in0.3 mm 0.00 in0.0 mm 0.01 in0.3 mm
06:40 AM 57.0°F13.9°C 32.9°F0.5°C 40% Calm Calm 4.0 mph6.4 kmh 210.53 in7129.4 mb 0.01 in0.3 mm 0.00 in0.0 mm 0.01 in0.3 mm
06:35 AM 58.0°F14.4°C 33.8°F1.0°C 40% 1.0 mph SSE1.6 kmh SSE 4.0 mph6.4 kmh 210.53 in7129.4 mb 0.01 in0.3 mm 0.00 in0.0 mm 0.01 in0.3 mm
06:30 AM 58.0°F14.4°C 33.8°F1.0°C 40% Calm Calm 4.0 mph6.4 kmh 210.53 in7129.4 mb 0.01 in0.3 mm 0.00 in0.0 mm 0.01 in0.3 mm
06:25 AM 58.0°F14.4°C 33.8°F1.0°C 40% Calm Calm 4.0 mph6.4 kmh 210.53 in7129.4 mb 0.01 in0.3 mm 0.00 in0.0 mm 0.01 in0.3 mm
06:20 AM 58.0°F14.4°C 33.8°F1.0°C 40% Calm Calm 4.0 mph6.4 kmh 210.53 in7129.4 mb 0.01 in0.3 mm 0.00 in0.0 mm 0.01 in0.3 mm
06:15 AM 58.0°F14.4°C 34.4°F1.3°C 41% Calm Calm 4.0 mph6.4 kmh 210.53 in7129.4 mb 0.01 in0.3 mm 0.00 in0.0 mm 0.01 in0.3 mm
06:10 AM 58.0°F14.4°C 33.8°F1.0°C 40% Calm Calm 4.0 mph6.4 kmh 210.53 in7129.4 mb 0.01 in0.3 mm 0.00 in0.0 mm 0.01 in0.3 mm
06:05 AM 58.0°F14.4°C 34.4°F1.3°C 41% Calm Calm 4.0 mph6.4 kmh 210.53 in7129.4 mb 0.01 in0.3 mm 0.00 in0.0 mm 0.01 in0.3 mm
06:00 AM 58.0°F14.4°C 34.4°F1.3°C 41% Calm Calm 4.0 mph6.4 kmh 210.53 in7129.4 mb 0.01 in0.3 mm 0.00 in0.0 mm 0.01 in0.3 mm
05:55 AM 58.0°F14.4°C 35.0°F1.7°C 42% Calm Calm 4.0 mph6.4 kmh 210.53 in7129.4 mb 0.01 in0.3 mm 0.00 in0.0 mm 0.01 in0.3 mm
05:50 AM 58.0°F14.4°C 35.0°F1.7°C 42% Calm Calm 4.0 mph6.4 kmh 210.53 in7129.4 mb 0.01 in0.3 mm 0.00 in0.0 mm 0.01 in0.3 mm
05:45 AM 58.0°F14.4°C 35.6°F2.0°C 43% Calm Calm 4.0 mph6.4 kmh 210.52 in7129.0 mb 0.01 in0.3 mm 0.12 in3.0 mm 0.01 in0.3 mm
05:40 AM 58.0°F14.4°C 35.6°F2.0°C 43% Calm Calm 4.0 mph6.4 kmh 210.52 in7129.0 mb 0.00 in0.0 mm 0.00 in0.0 mm 0.00 in0.0 mm
05:35 AM 58.0°F14.4°C 35.6°F2.0°C 43% 1.0 mph SSE1.6 kmh SSE 4.0 mph6.4 kmh 210.52 in7129.0 mb 0.00 in0.0 mm 0.00 in0.0 mm 0.00 in0.0 mm
05:30 AM 58.0°F14.4°C 35.6°F2.0°C 43% Calm Calm 4.0 mph6.4 kmh 210.52 in7129.0 mb 0.00 in0.0 mm 0.00 in0.0 mm 0.00 in0.0 mm
05:25 AM 58.0°F14.4°C 35.6°F2.0°C 43% Calm Calm 4.0 mph6.4 kmh 210.52 in7129.0 mb 0.00 in0.0 mm 0.00 in0.0 mm 0.00 in0.0 mm
05:20 AM 58.0°F14.4°C 35.6°F2.0°C 43% Calm Calm 4.0 mph6.4 kmh 210.52 in7129.0 mb 0.00 in0.0 mm 0.00 in0.0 mm 0.00 in0.0 mm
05:15 AM 58.0°F14.4°C 35.6°F2.0°C 43% Calm Calm 4.0 mph6.4 kmh 210.52 in7129.0 mb 0.00 in0.0 mm 0.00 in0.0 mm 0.00 in0.0 mm
05:10 AM 58.0°F14.4°C 35.6°F2.0°C 43% Calm Calm 4.0 mph6.4 kmh 210.52 in7129.0 mb 0.00 in0.0 mm 0.00 in0.0 mm 0.00 in0.0 mm
05:05 AM 58.0°F14.4°C 35.6°F2.0°C 43% Calm Calm 4.0 mph6.4 kmh 210.52 in7129.0 mb 0.00 in0.0 mm 0.00 in0.0 mm 0.00 in0.0 mm
05:00 AM 58.0°F14.4°C 35.6°F2.0°C 43% Calm Calm 4.0 mph6.4 kmh 210.52 in7129.0 mb 0.00 in0.0 mm 0.00 in0.0 mm 0.00 in0.0 mm
04:55 AM 59.0°F15.0°C 36.5°F2.5°C 43% Calm Calm 4.0 mph6.4 kmh 210.52 in7129.0 mb 0.00 in0.0 mm 0.00 in0.0 mm 0.00 in0.0 mm
04:50 AM 59.0°F15.0°C 36.5°F2.5°C 43% Calm Calm 4.0 mph6.4 kmh 210.52 in7129.0 mb 0.00 in0.0 mm 0.00 in0.0 mm 0.00 in0.0 mm
04:45 AM 59.0°F15.0°C 37.1°F2.8°C 44% Calm Calm 4.0 mph6.4 kmh 210.51 in7128.7 mb 0.00 in0.0 mm 0.00 in0.0 mm 0.00 in0.0 mm
04:40 AM 59.0°F15.0°C 37.1°F2.8°C 44% Calm Calm 4.0 mph6.4 kmh 210.51 in7128.7 mb 0.00 in0.0 mm 0.00 in0.0 mm 0.00 in0.0 mm
04:35 AM 59.0°F15.0°C 37.1°F2.8°C 44% Calm Calm 4.0 mph6.4 kmh 210.51 in7128.7 mb 0.00 in0.0 mm 0.00 in0.0 mm 0.00 in0.0 mm
04:30 AM 59.0°F15.0°C 37.1°F2.8°C 44% Calm Calm 4.0 mph6.4 kmh 210.51 in7128.7 mb 0.00 in0.0 mm 0.00 in0.0 mm 0.00 in0.0 mm
04:25 AM 59.0°F15.0°C 37.6°F3.1°C 45% Calm Calm 4.0 mph6.4 kmh 210.51 in7128.7 mb 0.00 in0.0 mm 0.00 in0.0 mm 0.00 in0.0 mm
04:20 AM 59.0°F15.0°C 37.1°F2.8°C 44% Calm Calm 4.0 mph6.4 kmh 210.51 in7128.7 mb 0.00 in0.0 mm 0.00 in0.0 mm 0.00 in0.0 mm
04:15 AM 59.0°F15.0°C 37.6°F3.1°C 45% Calm Calm 4.0 mph6.4 kmh 210.51 in7128.7 mb 0.00 in0.0 mm 0.00 in0.0 mm 0.00 in0.0 mm
04:10 AM 59.0°F15.0°C 37.1°F2.8°C 44% Calm Calm 4.0 mph6.4 kmh 210.51 in7128.7 mb 0.00 in0.0 mm 0.00 in0.0 mm 0.00 in0.0 mm
04:05 AM 59.0°F15.0°C 37.6°F3.1°C 45% Calm Calm 4.0 mph6.4 kmh 210.50 in7128.4 mb 0.00 in0.0 mm 0.00 in0.0 mm 0.00 in0.0 mm
04:00 AM 59.0°F15.0°C 37.1°F2.8°C 44% Calm Calm 4.0 mph6.4 kmh 210.50 in7128.4 mb 0.00 in0.0 mm 0.00 in0.0 mm 0.00 in0.0 mm
03:55 AM 59.0°F15.0°C 37.6°F3.1°C 45% Calm Calm 4.0 mph6.4 kmh 210.50 in7128.4 mb 0.00 in0.0 mm 0.00 in0.0 mm 0.00 in0.0 mm
03:50 AM 59.0°F15.0°C 37.6°F3.1°C 45% Calm Calm 4.0 mph6.4 kmh 210.50 in7128.4 mb 0.00 in0.0 mm 0.00 in0.0 mm 0.00 in0.0 mm
03:45 AM 58.0°F14.4°C 36.7°F2.6°C 45% Calm Calm 4.0 mph6.4 kmh 210.51 in7128.7 mb 0.00 in0.0 mm 0.00 in0.0 mm 0.00 in0.0 mm
03:40 AM 58.0°F14.4°C 36.7°F2.6°C 45% Calm Calm 4.0 mph6.4 kmh 210.51 in7128.7 mb 0.00 in0.0 mm 0.00 in0.0 mm 0.00 in0.0 mm
03:35 AM 58.0°F14.4°C 36.7°F2.6°C 45% Calm Calm 4.0 mph6.4 kmh 210.51 in7128.7 mb 0.00 in0.0 mm 0.00 in0.0 mm 0.00 in0.0 mm
03:30 AM 58.0°F14.4°C 36.7°F2.6°C 45% Calm Calm 4.0 mph6.4 kmh 210.51 in7128.7 mb 0.00 in0.0 mm 0.00 in0.0 mm 0.00 in0.0 mm
03:25 AM 58.0°F14.4°C 36.7°F2.6°C 45% Calm Calm 4.0 mph6.4 kmh 210.51 in7128.7 mb 0.00 in0.0 mm 0.00 in0.0 mm 0.00 in0.0 mm
03:20 AM 58.0°F14.4°C 36.7°F2.6°C 45% Calm Calm 4.0 mph6.4 kmh 210.51 in7128.7 mb 0.00 in0.0 mm 0.00 in0.0 mm 0.00 in0.0 mm
03:15 AM 58.0°F14.4°C 36.7°F2.6°C 45% Calm Calm 4.0 mph6.4 kmh 210.51 in7128.7 mb 0.00 in0.0 mm 0.00 in0.0 mm 0.00 in0.0 mm
03:10 AM 58.0°F14.4°C 36.7°F2.6°C 45% Calm Calm 4.0 mph6.4 kmh 210.51 in7128.7 mb 0.00 in0.0 mm 0.00 in0.0 mm 0.00 in0.0 mm
03:00 AM 58.0°F14.4°C 36.7°F2.6°C 45% Calm Calm 4.0 mph6.4 kmh 210.50 in7128.4 mb 0.00 in0.0 mm 0.00 in0.0 mm 0.00 in0.0 mm
02:55 AM 59.0°F15.0°C 37.6°F3.1°C 45% Calm Calm 2.0 mph3.2 kmh 210.50 in7128.4 mb 0.00 in0.0 mm 0.00 in0.0 mm 0.00 in0.0 mm
02:50 AM 59.0°F15.0°C 37.6°F3.1°C 45% Calm Calm 2.0 mph3.2 kmh 210.50 in7128.4 mb 0.00 in0.0 mm 0.00 in0.0 mm 0.00 in0.0 mm
02:45 AM 59.0°F15.0°C 37.6°F3.1°C 45% Calm Calm 2.0 mph3.2 kmh 210.50 in7128.4 mb 0.00 in0.0 mm 0.00 in0.0 mm 0.00 in0.0 mm
02:40 AM 59.0°F15.0°C 37.6°F3.1°C 45% Calm Calm 2.0 mph3.2 kmh 210.50 in7128.4 mb 0.00 in0.0 mm 0.00 in0.0 mm 0.00 in0.0 mm
02:35 AM 59.0°F15.0°C 37.6°F3.1°C 45% Calm Calm 2.0 mph3.2 kmh 210.49 in7128.0 mb 0.00 in0.0 mm 0.00 in0.0 mm 0.00 in0.0 mm
02:30 AM 60.0°F15.6°C 38.6°F3.7°C 45% Calm Calm 2.0 mph3.2 kmh 210.49 in7128.0 mb 0.00 in0.0 mm 0.00 in0.0 mm 0.00 in0.0 mm
02:25 AM 60.0°F15.6°C 38.6°F3.7°C 45% Calm Calm 2.0 mph3.2 kmh 210.50 in7128.4 mb 0.00 in0.0 mm 0.00 in0.0 mm 0.00 in0.0 mm
02:20 AM 60.0°F15.6°C 38.6°F3.7°C 45% Calm Calm 2.0 mph3.2 kmh 210.50 in7128.4 mb 0.00 in0.0 mm 0.00 in0.0 mm 0.00 in0.0 mm
02:15 AM 59.0°F15.0°C 37.6°F3.1°C 45% Calm Calm 2.0 mph3.2 kmh 210.50 in7128.4 mb 0.00 in0.0 mm 0.00 in0.0 mm 0.00 in0.0 mm
02:10 AM 60.0°F15.6°C 38.6°F3.7°C 45% Calm Calm 2.0 mph3.2 kmh 210.50 in7128.4 mb 0.00 in0.0 mm 0.00 in0.0 mm 0.00 in0.0 mm
02:05 AM 60.0°F15.6°C 39.1°F3.9°C 46% Calm Calm 2.0 mph3.2 kmh 210.50 in7128.4 mb 0.00 in0.0 mm 0.00 in0.0 mm 0.00 in0.0 mm
02:00 AM 60.0°F15.6°C 38.6°F3.7°C 45% Calm Calm 2.0 mph3.2 kmh 210.50 in7128.4 mb 0.00 in0.0 mm 0.00 in0.0 mm 0.00 in0.0 mm
01:55 AM 60.0°F15.6°C 38.6°F3.7°C 45% Calm Calm 2.0 mph3.2 kmh 210.50 in7128.4 mb 0.00 in0.0 mm 0.00 in0.0 mm 0.00 in0.0 mm
01:50 AM 61.0°F16.1°C 39.5°F4.2°C 45% Calm Calm 2.0 mph3.2 kmh 210.50 in7128.4 mb 0.00 in0.0 mm 0.00 in0.0 mm 0.00 in0.0 mm
01:45 AM 60.0°F15.6°C 39.1°F3.9°C 46% 1.0 mph WNW1.6 kmh WNW 2.0 mph3.2 kmh 210.50 in7128.4 mb 0.00 in0.0 mm 0.00 in0.0 mm 0.00 in0.0 mm
01:40 AM 60.0°F15.6°C 39.1°F3.9°C 46% Calm Calm 2.0 mph3.2 kmh 210.50 in7128.4 mb 0.00 in0.0 mm 0.00 in0.0 mm 0.00 in0.0 mm
01:35 AM 60.0°F15.6°C 39.1°F3.9°C 46% Calm Calm 2.0 mph3.2 kmh 210.49 in7128.0 mb 0.00 in0.0 mm 0.00 in0.0 mm 0.00 in0.0 mm
01:30 AM 61.0°F16.1°C 40.0°F4.4°C 46% Calm Calm 2.0 mph3.2 kmh 210.49 in7128.0 mb 0.00 in0.0 mm 0.00 in0.0 mm 0.00 in0.0 mm
01:25 AM 61.0°F16.1°C 40.0°F4.4°C 46% Calm Calm 2.0 mph3.2 kmh 210.49 in7128.0 mb 0.00 in0.0 mm 0.00 in0.0 mm 0.00 in0.0 mm
01:20 AM 61.0°F16.1°C 40.0°F4.4°C 46% Calm Calm 2.0 mph3.2 kmh 210.49 in7128.0 mb 0.00 in0.0 mm 0.00 in0.0 mm 0.00 in0.0 mm
01:15 AM 61.0°F16.1°C 40.0°F4.4°C 46% Calm Calm 2.0 mph3.2 kmh 210.49 in7128.0 mb 0.00 in0.0 mm 0.00 in0.0 mm 0.00 in0.0 mm
01:10 AM 61.0°F16.1°C 40.0°F4.4°C 46% Calm Calm 2.0 mph3.2 kmh 210.49 in7128.0 mb 0.00 in0.0 mm 0.00 in0.0 mm 0.00 in0.0 mm
01:05 AM 61.0°F16.1°C 40.0°F4.4°C 46% Calm Calm 2.0 mph3.2 kmh 210.49 in7128.0 mb 0.00 in0.0 mm 0.00 in0.0 mm 0.00 in0.0 mm
01:00 AM 61.0°F16.1°C 40.0°F4.4°C 46% Calm Calm 2.0 mph3.2 kmh 210.49 in7128.0 mb 0.00 in0.0 mm 0.00 in0.0 mm 0.00 in0.0 mm
12:55 AM 61.0°F16.1°C 40.0°F4.4°C 46% Calm Calm 2.0 mph3.2 kmh 210.49 in7128.0 mb 0.00 in0.0 mm 0.00 in0.0 mm 0.00 in0.0 mm
12:50 AM 61.0°F16.1°C 40.0°F4.4°C 46% 2.0 mph WNW3.2 kmh WNW 2.0 mph3.2 kmh 210.49 in7128.0 mb 0.00 in0.0 mm 0.00 in0.0 mm 0.00 in0.0 mm
12:45 AM 62.0°F16.7°C 40.9°F4.9°C 46% Calm Calm 2.0 mph3.2 kmh 210.49 in7128.0 mb 0.00 in0.0 mm 0.00 in0.0 mm 0.00 in0.0 mm
12:40 AM 62.0°F16.7°C 40.9°F4.9°C 46% Calm Calm 2.0 mph3.2 kmh 210.49 in7128.0 mb 0.00 in0.0 mm 0.00 in0.0 mm 0.00 in0.0 mm
12:35 AM 62.0°F16.7°C 40.9°F4.9°C 46% Calm Calm 2.0 mph3.2 kmh 210.49 in7128.0 mb 0.00 in0.0 mm 0.00 in0.0 mm 0.00 in0.0 mm
12:30 AM 62.0°F16.7°C 40.9°F4.9°C 46% 1.0 mph WNW1.6 kmh WNW 2.0 mph3.2 kmh 210.49 in7128.0 mb 0.00 in0.0 mm 0.00 in0.0 mm 0.00 in0.0 mm
12:25 AM 62.0°F16.7°C 40.9°F4.9°C 46% Calm Calm 2.0 mph3.2 kmh 210.49 in7128.0 mb 0.00 in0.0 mm 0.00 in0.0 mm 0.00 in0.0 mm
12:20 AM 62.0°F16.7°C 40.9°F4.9°C 46% Calm Calm 2.0 mph3.2 kmh 210.49 in7128.0 mb 0.00 in0.0 mm 0.00 in0.0 mm 0.00 in0.0 mm
12:15 AM 62.0°F16.7°C 40.9°F4.9°C 46% Calm Calm 2.0 mph3.2 kmh 210.49 in7128.0 mb 0.00 in0.0 mm 0.00 in0.0 mm 0.00 in0.0 mm
12:10 AM 62.0°F16.7°C 40.9°F4.9°C 46% Calm Calm 2.0 mph3.2 kmh 210.49 in7128.0 mb 0.00 in0.0 mm 0.00 in0.0 mm 0.00 in0.0 mm
12:05 AM 62.0°F16.7°C 40.9°F4.9°C 46% Calm Calm 1.0 mph1.6 kmh 210.48 in7127.7 mb 0.00 in0.0 mm 0.00 in0.0 mm 0.00 in0.0 mm
12:00 AM 62.0°F16.7°C 40.9°F4.9°C 46% Calm Calm -- 210.48 in7127.7 mb 0.00 in0.0 mm 0.00 in0.0 mm 0.00 in0.0 mm